createdAt,value
2019-04-29T00:00:46.671Z,4.20
2019-04-29T00:03:15.499Z,3.90
2019-04-29T00:05:44.001Z,3.55
2019-04-29T00:08:12.524Z,2.87
2019-04-29T00:10:40.983Z,2.50
2019-04-29T00:13:09.523Z,2.72
2019-04-29T00:15:46.827Z,2.58
2019-04-29T00:18:19.486Z,2.43
2019-04-29T00:20:49.513Z,2.62
2019-04-29T00:23:17.953Z,2.37
2019-04-29T00:25:46.338Z,2.97
2019-04-29T00:28:15.606Z,3.55
2019-04-29T00:30:45.604Z,3.10
2019-04-29T00:33:14.027Z,4.03
2019-04-29T00:35:42.513Z,2.90
2019-04-29T00:38:21.473Z,2.62
2019-04-29T00:40:51.534Z,3.25
2019-04-29T00:43:37.967Z,3.35
2019-04-29T00:46:06.750Z,3.33
2019-04-29T00:48:35.309Z,3.65
2019-04-29T00:51:04.483Z,4.20
2019-04-29T00:53:32.860Z,3.40
2019-04-29T00:56:02.691Z,4.25
2019-04-29T00:58:31.081Z,4.03
2019-04-29T01:00:59.569Z,4.33
2019-04-29T01:03:28.902Z,3.80
2019-04-29T01:05:57.354Z,5.05
2019-04-29T01:08:25.975Z,5.42
2019-04-29T01:10:54.448Z,5.87
2019-04-29T01:13:23.087Z,6.10
2019-04-29T01:15:52.995Z,6.42
2019-04-29T01:18:21.636Z,5.73
2019-04-29T01:20:50.097Z,5.80
2019-04-29T01:23:18.501Z,7.03
2019-04-29T01:25:48.575Z,7.12
2019-04-29T01:28:21.424Z,5.12
2019-04-29T01:30:55.490Z,6.95
2019-04-29T01:33:24.027Z,6.40
2019-04-29T01:35:54.112Z,7.53
2019-04-29T01:38:22.476Z,4.50
2019-04-29T01:41:01.144Z,3.60
2019-04-29T01:43:47.742Z,4.92
2019-04-29T01:46:16.153Z,4.50
2019-04-29T01:48:44.519Z,4.40
2019-04-29T01:51:13.090Z,4.42
2019-04-29T01:53:41.469Z,3.65
2019-04-29T01:56:09.853Z,4.40
2019-04-29T01:58:38.355Z,4.35
2019-04-29T02:01:06.805Z,4.95
2019-04-29T02:03:35.313Z,4.55
2019-04-29T02:06:04.490Z,4.70
2019-04-29T02:08:32.811Z,3.95
2019-04-29T02:11:01.187Z,5.12
2019-04-29T02:13:29.586Z,5.92
2019-04-29T02:15:57.974Z,5.22
2019-04-29T02:18:26.372Z,6.75
2019-04-29T02:20:54.788Z,6.40
2019-04-29T02:23:39.536Z,5.67
2019-04-29T02:26:08.118Z,5.95
2019-04-29T02:28:36.522Z,5.37
2019-04-29T02:31:22.386Z,5.95
2019-04-29T02:33:50.775Z,6.37
2019-04-29T02:36:19.155Z,5.92
2019-04-29T02:38:53.384Z,5.60
2019-04-29T02:41:29.967Z,7.30
2019-04-29T02:43:59.964Z,6.22
2019-04-29T02:46:28.398Z,6.58
2019-04-29T02:48:56.953Z,7.10
2019-04-29T02:51:43.156Z,5.35
2019-04-29T02:54:11.730Z,6.33
2019-04-29T02:56:41.778Z,7.12
2019-04-29T02:59:14.504Z,7.45
2019-04-29T03:01:46.344Z,8.38
2019-04-29T03:04:16.463Z,8.48
2019-04-29T03:06:46.461Z,8.40
2019-04-29T03:09:14.827Z,8.95
2019-04-29T03:11:43.387Z,8.93
2019-04-29T03:14:11.933Z,10.15
2019-04-29T03:16:40.523Z,9.03
2019-04-29T03:19:16.405Z,8.68
2019-04-29T03:21:55.055Z,9.40
2019-04-29T03:24:24.941Z,10.43
2019-04-29T03:26:53.312Z,9.30
2019-04-29T03:29:24.821Z,9.25
2019-04-29T03:31:53.980Z,11.15
2019-04-29T03:34:23.913Z,9.88
2019-04-29T03:36:52.409Z,9.13
2019-04-29T03:39:21.178Z,9.75
2019-04-29T03:41:51.278Z,8.50
2019-04-29T03:44:19.651Z,8.28
2019-04-29T03:46:48.005Z,9.18
2019-04-29T03:49:16.496Z,8.80
2019-04-29T03:51:44.957Z,9.05
2019-04-29T03:54:14.853Z,7.93
2019-04-29T03:56:44.799Z,7.60
2019-04-29T03:59:13.261Z,9.27
2019-04-29T04:01:43.297Z,10.30
2019-04-29T04:04:13.357Z,8.43
2019-04-29T04:06:52.736Z,10.68
2019-04-29T04:09:22.756Z,8.55
2019-04-29T04:11:51.120Z,9.60
2019-04-29T04:14:19.747Z,9.60
2019-04-29T04:17:04.555Z,9.95
2019-04-29T04:19:34.002Z,9.43
2019-04-29T04:22:02.517Z,8.20
2019-04-29T04:24:30.966Z,8.40
2019-04-29T04:26:59.331Z,8.93
2019-04-29T04:29:27.714Z,7.30
2019-04-29T04:31:56.577Z,8.13
2019-04-29T04:34:25.092Z,7.67
2019-04-29T04:36:53.444Z,6.83
2019-04-29T04:39:25.973Z,8.40
2019-04-29T04:41:54.620Z,7.37
2019-04-29T04:44:24.771Z,6.72
2019-04-29T04:46:53.138Z,7.62
2019-04-29T04:49:21.527Z,5.95
2019-04-29T04:51:50.252Z,8.25
2019-04-29T04:54:18.651Z,7.70
2019-04-29T04:56:47.023Z,7.45
2019-04-29T04:59:15.422Z,7.97
2019-04-29T05:01:43.974Z,7.95
2019-04-29T05:04:12.465Z,6.40
2019-04-29T05:06:40.882Z,8.55
2019-04-29T05:09:09.348Z,9.00
2019-04-29T05:11:37.931Z,8.83
2019-04-29T05:14:06.325Z,9.17
2019-04-29T05:16:34.691Z,8.58
2019-04-29T05:19:03.065Z,7.90
2019-04-29T05:21:31.460Z,9.20
2019-04-29T05:23:59.839Z,9.03
2019-04-29T05:26:28.243Z,10.23
2019-04-29T05:28:56.626Z,10.55
2019-04-29T05:31:25.018Z,11.53
2019-04-29T05:33:53.586Z,9.63
2019-04-29T05:36:39.578Z,8.28
2019-04-29T05:39:21.370Z,10.90
2019-04-29T05:41:51.716Z,9.80
2019-04-29T05:44:24.668Z,9.98
2019-04-29T05:47:00.169Z,8.80
2019-04-29T05:49:41.760Z,7.70
2019-04-29T05:52:26.073Z,10.05
2019-04-29T05:54:54.524Z,9.25
2019-04-29T05:57:25.407Z,10.82
2019-04-29T05:59:53.055Z,9.88
2019-04-29T06:02:24.061Z,10.80
2019-04-29T06:04:52.487Z,9.63
2019-04-29T06:07:23.551Z,10.38
2019-04-29T06:09:51.864Z,12.20
2019-04-29T06:12:20.467Z,8.73
2019-04-29T06:14:48.881Z,10.35
2019-04-29T06:17:17.324Z,10.07
2019-04-29T06:19:47.329Z,8.68
2019-04-29T06:22:15.747Z,7.90
2019-04-29T06:24:44.113Z,8.23
2019-04-29T06:27:13.353Z,7.17
2019-04-29T06:29:41.745Z,6.62
2019-04-29T06:32:10.418Z,6.75
2019-04-29T06:34:40.183Z,6.37
2019-04-29T06:37:10.612Z,6.16
2019-04-29T06:39:39.028Z,5.85
2019-04-29T06:42:07.519Z,6.53
2019-04-29T06:44:35.899Z,5.75
2019-04-29T06:47:04.453Z,5.55
2019-04-29T06:49:32.919Z,4.80
2019-04-29T06:52:01.302Z,5.22
2019-04-29T06:54:29.766Z,5.97
2019-04-29T06:56:58.247Z,6.13
2019-04-29T06:59:26.779Z,5.92
2019-04-29T07:01:55.171Z,5.92
2019-04-29T07:04:23.608Z,7.35
2019-04-29T07:06:57.551Z,7.58
2019-04-29T07:09:22.909Z,8.20
2019-04-29T07:11:51.336Z,7.75
2019-04-29T07:14:19.747Z,9.03
2019-04-29T07:16:48.146Z,7.85
2019-04-29T07:19:16.658Z,9.13
2019-04-29T07:21:47.016Z,8.75
2019-04-29T07:24:15.403Z,8.30
2019-04-29T07:26:43.779Z,8.55
2019-04-29T07:29:12.366Z,8.23
2019-04-29T07:31:40.757Z,8.45
2019-04-29T07:34:10.029Z,9.18
2019-04-29T07:36:38.419Z,7.83
2019-04-29T07:39:07.815Z,8.43
2019-04-29T07:41:36.265Z,8.23
2019-04-29T07:44:04.995Z,8.75
2019-04-29T07:46:55.145Z,8.63
2019-04-29T07:49:05.833Z,7.97
2019-04-29T07:51:38.915Z,7.92
2019-04-29T07:54:04.971Z,8.05
2019-04-29T07:56:33.561Z,6.85
2019-04-29T07:59:03.075Z,7.00
2019-04-29T08:01:32.134Z,8.98
2019-04-29T08:04:00.555Z,9.28
2019-04-29T08:06:29.673Z,9.68
2019-04-29T08:09:07.459Z,11.12
2019-04-29T08:11:31.485Z,10.80
2019-04-29T08:14:01.729Z,12.58
2019-04-29T08:16:30.371Z,13.45
2019-04-29T08:18:58.874Z,13.40
2019-04-29T08:21:30.343Z,12.95
2019-04-29T08:23:58.783Z,15.38
2019-04-29T08:26:27.185Z,16.00
2019-04-29T08:29:00.456Z,15.90
2019-04-29T08:31:26.042Z,15.85
2019-04-29T08:33:56.120Z,16.45
2019-04-29T08:36:24.657Z,17.42
2019-04-29T08:38:53.055Z,17.05
2019-04-29T08:41:28.593Z,14.47
2019-04-29T08:43:57.808Z,15.20
2019-04-29T08:46:25.464Z,16.97
2019-04-29T08:48:53.878Z,15.78
2019-04-29T08:51:23.865Z,16.48
2019-04-29T08:53:52.425Z,15.90
2019-04-29T08:56:20.903Z,16.07
2019-04-29T08:58:51.046Z,15.63
2019-04-29T09:01:19.447Z,16.07
2019-04-29T09:03:47.906Z,15.90
2019-04-29T09:06:16.324Z,14.93
2019-04-29T09:08:54.498Z,15.05
2019-04-29T09:11:15.335Z,15.73
2019-04-29T09:13:43.732Z,13.03
2019-04-29T09:16:12.152Z,13.60
2019-04-29T09:18:40.617Z,13.98
2019-04-29T09:21:10.521Z,13.68
2019-04-29T09:23:38.904Z,13.25
2019-04-29T09:26:14.514Z,13.20
2019-04-29T09:28:43.101Z,11.97
2019-04-29T09:31:11.505Z,11.28
2019-04-29T09:33:44.268Z,11.48
2019-04-29T09:36:13.782Z,11.57
2019-04-29T09:38:40.297Z,11.85
2019-04-29T09:41:13.079Z,9.82
2019-04-29T09:43:59.181Z,8.18
2019-04-29T09:46:34.177Z,8.50
2019-04-29T09:49:00.065Z,8.55
2019-04-29T09:51:29.771Z,7.92
2019-04-29T09:53:58.442Z,8.57
2019-04-29T09:56:27.064Z,9.33
2019-04-29T09:59:13.124Z,8.35
2019-04-29T10:01:45.989Z,8.07
2019-04-29T10:04:22.053Z,7.10
2019-04-29T10:06:52.101Z,6.97
2019-04-29T10:09:21.060Z,6.97
2019-04-29T10:11:49.888Z,6.37
2019-04-29T10:14:18.417Z,6.60
2019-04-29T10:16:51.390Z,6.17
2019-04-29T10:19:23.324Z,6.58
2019-04-29T10:21:51.750Z,6.62
2019-04-29T10:24:20.130Z,6.70
2019-04-29T10:26:50.068Z,6.47
2019-04-29T10:29:20.378Z,6.60
2019-04-29T10:31:49.085Z,6.10
2019-04-29T10:34:18.332Z,5.53
2019-04-29T10:36:47.147Z,5.90
2019-04-29T10:39:33.736Z,5.47
2019-04-29T10:42:03.803Z,5.90
2019-04-29T10:44:39.528Z,5.72
2019-04-29T10:47:21.387Z,5.87
2019-04-29T10:49:57.435Z,6.65
2019-04-29T10:52:26.730Z,5.43
2019-04-29T10:54:56.543Z,4.53
2019-04-29T10:57:29.278Z,3.85
2019-04-29T11:00:17.021Z,3.95
2019-04-29T11:02:49.243Z,3.05
2019-04-29T11:05:19.107Z,3.67
2019-04-29T11:07:49.132Z,3.83
2019-04-29T11:10:26.161Z,3.67
2019-04-29T11:12:55.086Z,3.40
2019-04-29T11:15:28.450Z,3.02
2019-04-29T11:17:59.207Z,2.98
2019-04-29T11:20:26.672Z,2.85
2019-04-29T11:23:02.526Z,3.25
2019-04-29T11:25:32.707Z,2.92
2019-04-29T11:28:02.717Z,2.75
2019-04-29T11:30:34.841Z,2.90
2019-04-29T11:33:08.024Z,2.83
2019-04-29T11:35:43.893Z,3.10
2019-04-29T11:38:13.563Z,3.13
2019-04-29T11:40:44.191Z,2.20
2019-04-29T11:43:15.637Z,1.98
2019-04-29T11:45:44.287Z,1.77
2019-04-29T11:48:12.839Z,1.82
2019-04-29T11:50:45.170Z,2.20
2019-04-29T11:53:14.577Z,1.52
2019-04-29T11:55:46.264Z,1.57
2019-04-29T11:58:20.154Z,1.62
2019-04-29T12:01:10.391Z,2.03
2019-04-29T12:03:43.174Z,1.98
2019-04-29T12:06:16.348Z,1.65
2019-04-29T12:08:48.159Z,1.90
2019-04-29T12:11:19.173Z,1.75
2019-04-29T12:13:53.473Z,1.50
2019-04-29T12:16:24.520Z,2.27
2019-04-29T12:19:01.544Z,1.57
2019-04-29T12:21:34.337Z,2.05
2019-04-29T12:24:04.217Z,1.70
2019-04-29T12:26:34.998Z,1.65
2019-04-29T12:29:02.906Z,1.70
2019-04-29T12:31:37.217Z,2.62
2019-04-29T12:34:07.239Z,1.65
2019-04-29T12:36:48.269Z,1.52
2019-04-29T12:39:42.889Z,2.00
2019-04-29T12:42:04.521Z,1.40
2019-04-29T12:44:35.283Z,1.37
2019-04-29T12:47:26.624Z,1.60
2019-04-29T12:49:52.546Z,2.00
2019-04-29T12:52:21.187Z,1.85
2019-04-29T12:54:49.568Z,1.70
2019-04-29T12:57:18.936Z,2.70
2019-04-29T12:59:48.314Z,1.62
2019-04-29T13:02:24.443Z,1.72
2019-04-29T13:05:10.873Z,2.08
2019-04-29T13:07:49.852Z,2.40
2019-04-29T13:10:37.850Z,2.50
2019-04-29T13:13:06.310Z,2.80
2019-04-29T13:15:43.834Z,2.08
2019-04-29T13:18:23.075Z,2.40
2019-04-29T13:20:50.775Z,2.12
2019-04-29T13:23:24.398Z,2.45
2019-04-29T13:25:51.075Z,2.00
2019-04-29T13:28:29.499Z,2.10
2019-04-29T13:30:51.500Z,2.30
2019-04-29T13:33:19.892Z,2.10
2019-04-29T13:35:49.775Z,2.15
2019-04-29T13:38:18.123Z,1.80
2019-04-29T13:40:46.610Z,2.30
2019-04-29T13:43:15.157Z,1.92
2019-04-29T13:45:45.542Z,1.98
2019-04-29T13:48:31.886Z,2.35
2019-04-29T13:51:34.766Z,2.50
2019-04-29T13:53:48.700Z,1.57
2019-04-29T13:56:32.603Z,1.82
2019-04-29T13:58:47.339Z,1.55
2019-04-29T14:01:33.024Z,2.22
2019-04-29T14:03:59.088Z,1.60
2019-04-29T14:06:28.189Z,1.62
2019-04-29T14:08:59.949Z,2.10
2019-04-29T14:11:27.692Z,1.30
2019-04-29T14:13:56.351Z,1.82
2019-04-29T14:16:24.862Z,1.90
2019-04-29T14:18:53.266Z,1.53
2019-04-29T14:21:25.709Z,1.42
2019-04-29T14:23:52.182Z,1.52
2019-04-29T14:26:20.623Z,1.22
2019-04-29T14:28:49.132Z,1.40
2019-04-29T14:31:22.794Z,1.47
2019-04-29T14:34:00.370Z,1.20
2019-04-29T14:36:28.388Z,1.50
2019-04-29T14:38:58.363Z,1.47
2019-04-29T14:41:29.311Z,1.40
2019-04-29T14:44:11.254Z,1.05
2019-04-29T14:46:50.876Z,1.60
2019-04-29T14:49:23.489Z,1.20
2019-04-29T14:51:51.878Z,1.05
2019-04-29T14:54:22.012Z,1.25
2019-04-29T14:56:50.780Z,0.97
2019-04-29T14:59:19.505Z,1.05
2019-04-29T15:01:49.932Z,1.20
2019-04-29T15:04:20.009Z,2.20
2019-04-29T15:06:48.457Z,1.60
2019-04-29T15:09:19.650Z,1.43
2019-04-29T15:11:58.723Z,2.22
2019-04-29T15:14:31.135Z,1.30
2019-04-29T15:17:07.895Z,1.80
2019-04-29T15:22:35.781Z,1.53
2019-04-29T15:25:06.452Z,3.50
2019-04-29T15:27:34.879Z,1.40
2019-04-29T15:30:07.925Z,1.38
2019-04-29T15:32:36.381Z,1.90
2019-04-29T15:35:06.914Z,2.40
2019-04-29T15:37:35.345Z,4.72
2019-04-29T15:40:06.670Z,3.87
2019-04-29T15:42:38.034Z,5.72
2019-04-29T15:45:07.298Z,4.65
2019-04-29T15:47:35.710Z,4.85
2019-04-29T15:50:18.328Z,3.90
2019-04-29T15:52:35.950Z,4.42
2019-04-29T15:55:07.195Z,2.45
2019-04-29T15:57:36.057Z,1.70
2019-04-29T16:00:21.215Z,2.37
2019-04-29T16:02:41.525Z,2.20
2019-04-29T16:05:22.261Z,2.08
2019-04-29T16:07:58.243Z,3.27
2019-04-29T16:10:44.577Z,2.80
2019-04-29T16:13:14.257Z,4.20
2019-04-29T16:15:42.950Z,4.53
2019-04-29T16:18:14.845Z,3.20
2019-04-29T16:20:41.636Z,3.10
2019-04-29T16:23:11.766Z,3.47
2019-04-29T16:25:41.007Z,2.83
2019-04-29T16:28:10.509Z,2.75
2019-04-29T16:30:39.057Z,3.20
2019-04-29T16:33:14.354Z,2.70
2019-04-29T16:35:40.043Z,2.98
2019-04-29T16:40:41.896Z,4.25
2019-04-29T16:43:11.956Z,3.37
2019-04-29T16:48:33.278Z,7.58
2019-04-29T16:51:06.711Z,4.85
2019-04-29T16:53:32.096Z,6.08
2019-04-29T16:56:00.874Z,5.65
2019-04-29T16:58:29.329Z,6.50
2019-04-29T17:00:57.858Z,5.65
2019-04-29T17:03:26.310Z,4.85
2019-04-29T17:05:54.714Z,5.85
2019-04-29T17:08:24.824Z,6.35
2019-04-29T17:11:12.103Z,6.28
2019-04-29T17:13:37.474Z,6.83
2019-04-29T17:16:07.725Z,6.45
2019-04-29T17:18:36.136Z,7.00
2019-04-29T17:21:05.730Z,7.85
2019-04-29T17:23:35.122Z,8.28
2019-04-29T17:26:04.349Z,7.78
2019-04-29T17:28:50.764Z,7.80
2019-04-29T17:31:23.861Z,7.65
2019-04-29T17:33:54.700Z,6.53
2019-04-29T17:35:17.482Z,3.25
2019-04-29T17:36:25.718Z,7.58
2019-04-29T17:38:53.905Z,6.65
2019-04-29T17:41:22.309Z,6.30
2019-04-29T17:43:58.511Z,6.53
2019-04-29T17:46:44.865Z,6.87
2019-04-29T17:49:17.757Z,7.13
2019-04-29T17:51:46.158Z,6.42
2019-04-29T17:54:19.319Z,7.47
2019-04-29T17:57:03.664Z,6.12
2019-04-29T17:59:29.416Z,6.58
2019-04-29T18:01:55.783Z,6.50
2019-04-29T18:04:36.059Z,7.53
2019-04-29T18:07:18.513Z,7.78
2019-04-29T18:09:48.491Z,7.62
2019-04-29T18:12:18.652Z,7.67
2019-04-29T18:14:47.056Z,8.45
2019-04-29T18:17:24.285Z,7.83
2019-04-29T18:20:13.465Z,7.90
2019-04-29T18:22:54.864Z,8.48
2019-04-29T18:25:36.577Z,10.67
2019-04-29T18:28:05.196Z,15.05
2019-04-29T18:30:37.767Z,15.95
2019-04-29T18:33:05.353Z,9.75
2019-04-29T18:35:35.443Z,11.83
2019-04-29T18:38:07.548Z,9.68
2019-04-29T18:40:41.453Z,11.68
2019-04-29T18:43:05.027Z,11.55
2019-04-29T18:45:35.050Z,10.38
2019-04-29T18:48:08.989Z,11.20
2019-04-29T18:50:38.851Z,10.45
2019-04-29T18:53:06.906Z,11.63
2019-04-29T18:55:35.777Z,11.33
2019-04-29T18:58:05.808Z,12.70
2019-04-29T19:00:34.881Z,13.20
2019-04-29T19:03:06.435Z,12.10
2019-04-29T19:05:45.539Z,12.30
2019-04-29T19:08:19.097Z,11.22
2019-04-29T19:10:45.989Z,11.03
2019-04-29T19:13:16.691Z,11.33
2019-04-29T19:15:48.221Z,10.55
2019-04-29T19:18:17.511Z,11.08
2019-04-29T19:20:47.811Z,11.30
2019-04-29T19:23:16.082Z,10.27
2019-04-29T19:25:46.459Z,10.72
2019-04-29T19:28:25.302Z,10.60
2019-04-29T19:30:47.337Z,10.73
2019-04-29T19:33:15.739Z,12.75
2019-04-29T19:35:45.161Z,13.28
2019-04-29T19:38:15.630Z,12.30
2019-04-29T19:40:43.713Z,18.20
2019-04-29T19:43:15.382Z,22.82
2019-04-29T19:45:44.662Z,21.80
2019-04-29T19:48:12.739Z,22.10
2019-04-29T19:50:41.118Z,17.52
2019-04-29T19:53:11.142Z,15.80
2019-04-29T19:55:42.237Z,16.00
2019-04-29T19:58:12.446Z,18.45
2019-04-29T20:00:40.335Z,16.77
2019-04-29T20:03:20.466Z,18.30
2019-04-29T20:05:49.475Z,16.12
2019-04-29T20:08:37.868Z,15.45
2019-04-29T20:10:51.800Z,16.48
2019-04-29T20:13:30.587Z,16.25
2019-04-29T20:15:57.187Z,15.50
2019-04-29T20:18:58.347Z,16.40
2019-04-29T20:21:24.677Z,18.53
2019-04-29T20:23:48.017Z,18.50
2019-04-29T20:26:23.772Z,17.67
2019-04-29T20:28:51.084Z,17.12
2019-04-29T20:31:21.879Z,14.15
2019-04-29T20:33:48.751Z,14.23
2019-04-29T20:36:37.361Z,16.60
2019-04-29T20:38:48.039Z,16.95
2019-04-29T20:41:19.542Z,16.55
2019-04-29T20:43:46.919Z,18.57
2019-04-29T20:46:17.643Z,18.42
2019-04-29T20:48:45.954Z,18.40
2019-04-29T20:51:16.706Z,19.17
2019-04-29T20:53:47.721Z,19.60
2019-04-29T20:56:23.703Z,20.80
2019-04-29T20:58:46.965Z,19.82
2019-04-29T21:01:20.291Z,20.10
2019-04-29T21:03:52.312Z,21.12
2019-04-29T21:06:21.232Z,22.60
2019-04-29T21:08:52.178Z,22.35
2019-04-29T21:11:27.897Z,19.35
2019-04-29T21:14:05.479Z,21.77
2019-04-29T21:16:38.600Z,22.58
2019-04-29T21:19:08.989Z,21.02
2019-04-29T21:21:41.840Z,21.23
2019-04-29T21:24:14.097Z,21.97
2019-04-29T21:26:44.570Z,22.65
2019-04-29T21:29:10.691Z,22.80
2019-04-29T21:31:39.881Z,24.00
2019-04-29T21:34:08.302Z,26.63
2019-04-29T21:36:47.509Z,26.45
2019-04-29T21:39:25.154Z,27.45
2019-04-29T21:42:11.408Z,27.58
2019-04-29T21:44:39.958Z,27.62
2019-04-29T21:47:08.373Z,27.95
2019-04-29T21:49:44.954Z,27.67
2019-04-29T21:52:06.993Z,31.80
2019-04-29T21:54:35.451Z,36.55
2019-04-29T21:57:05.774Z,33.60
2019-04-29T21:59:35.738Z,36.40
2019-04-29T22:02:06.639Z,33.97
2019-04-29T22:04:37.389Z,34.18
2019-04-29T22:07:08.091Z,37.65
2019-04-29T22:09:40.497Z,38.90
2019-04-29T22:12:06.736Z,38.08
2019-04-29T22:14:35.277Z,36.58
2019-04-29T22:17:05.297Z,38.63
2019-04-29T22:19:35.078Z,37.58
2019-04-29T22:22:05.719Z,39.25
2019-04-29T22:24:35.659Z,38.65
2019-04-29T22:27:08.055Z,31.85
2019-04-29T22:29:38.968Z,37.88
2019-04-29T22:32:14.348Z,34.60
2019-04-29T22:34:40.210Z,38.65
2019-04-29T22:37:08.614Z,38.40
2019-04-29T22:39:37.008Z,37.63
2019-04-29T22:42:09.739Z,36.75
2019-04-29T22:44:38.261Z,38.73
2019-04-29T22:47:08.364Z,38.70
2019-04-29T22:49:36.763Z,37.23
2019-04-29T22:52:05.329Z,35.15
2019-04-29T22:54:35.316Z,33.58
2019-04-29T22:57:05.715Z,30.48
2019-04-29T22:59:35.370Z,33.42
2019-04-29T23:02:05.852Z,33.65
2019-04-29T23:04:35.082Z,33.98
2019-04-29T23:07:05.756Z,30.90
2019-04-29T23:09:36.561Z,33.08
2019-04-29T23:12:05.452Z,30.88
2019-04-29T23:14:36.022Z,32.40
2019-04-29T23:17:06.153Z,28.43
2019-04-29T23:19:35.088Z,28.60
2019-04-29T23:22:06.872Z,30.12
2019-04-29T23:24:55.749Z,28.17
2019-04-29T23:27:29.043Z,30.57
2019-04-29T23:29:59.560Z,27.80
2019-04-29T23:32:29.742Z,27.90
2019-04-29T23:35:01.683Z,25.62
2019-04-29T23:37:29.449Z,25.47
2019-04-29T23:39:58.171Z,24.10
2019-04-29T23:42:26.572Z,26.57
2019-04-29T23:44:56.987Z,27.00
2019-04-29T23:47:26.670Z,27.20
2019-04-29T23:49:55.082Z,24.35
2019-04-29T23:52:23.518Z,28.77
2019-04-29T23:54:53.715Z,27.30
2019-04-29T23:57:27.506Z,27.87
